sensor_id;sensor_type;location;lat;lon;timestamp;pressure;altitude;pressure_sealevel;temperature;humidity
53647;BME280;39550;52.230;5.194;2022-11-02T00:00:12;101168.16;;;12.77;79.73
53647;BME280;39550;52.230;5.194;2022-11-02T00:02:37;101161.25;;;12.76;79.73
53647;BME280;39550;52.230;5.194;2022-11-02T00:05:03;101163.00;;;12.77;79.14
53647;BME280;39550;52.230;5.194;2022-11-02T00:07:28;101162.13;;;12.75;79.52
53647;BME280;39550;52.230;5.194;2022-11-02T00:09:54;101157.81;;;12.74;79.20
53647;BME280;39550;52.230;5.194;2022-11-02T00:12:19;101169.03;;;12.74;79.14
53647;BME280;39550;52.230;5.194;2022-11-02T00:14:44;101181.94;;;12.73;79.33
53647;BME280;39550;52.230;5.194;2022-11-02T00:17:10;101172.47;;;12.73;79.70
53647;BME280;39550;52.230;5.194;2022-11-02T00:19:35;101164.69;;;12.73;79.60
53647;BME280;39550;52.230;5.194;2022-11-02T00:22:00;101162.97;;;12.69;79.42
53647;BME280;39550;52.230;5.194;2022-11-02T00:24:27;101164.69;;;12.69;80.24
53647;BME280;39550;52.230;5.194;2022-11-02T00:26:53;101163.84;;;12.68;80.38
53647;BME280;39550;52.230;5.194;2022-11-02T00:29:19;101145.72;;;12.67;79.26
53647;BME280;39550;52.230;5.194;2022-11-02T00:31:45;101157.78;;;12.69;79.74
53647;BME280;39550;52.230;5.194;2022-11-02T00:34:11;101168.13;;;12.68;79.76
53647;BME280;39550;52.230;5.194;2022-11-02T00:36:36;101162.97;;;12.68;79.71
53647;BME280;39550;52.230;5.194;2022-11-02T00:39:01;101168.97;;;12.65;80.20
53647;BME280;39550;52.230;5.194;2022-11-02T00:41:27;101180.22;;;12.69;80.38
53647;BME280;39550;52.230;5.194;2022-11-02T00:43:52;101181.06;;;12.68;80.03
53647;BME280;39550;52.230;5.194;2022-11-02T00:46:18;101182.78;;;12.67;79.13
53647;BME280;39550;52.230;5.194;2022-11-02T00:48:44;101187.13;;;12.70;79.82
53647;BME280;39550;52.230;5.194;2022-11-02T00:51:09;101182.78;;;12.69;79.52
53647;BME280;39550;52.230;5.194;2022-11-02T00:53:34;101170.72;;;12.68;79.64
53647;BME280;39550;52.230;5.194;2022-11-02T00:56:00;101180.19;;;12.66;79.76
53647;BME280;39550;52.230;5.194;2022-11-02T00:58:25;101183.63;;;12.68;79.30
53647;BME280;39550;52.230;5.194;2022-11-02T01:00:50;101194.88;;;12.68;79.16
53647;BME280;39550;52.230;5.194;2022-11-02T01:03:16;101204.31;;;12.65;80.01
53647;BME280;39550;52.230;5.194;2022-11-02T01:05:41;101164.66;;;12.63;79.35
53647;BME280;39550;52.230;5.194;2022-11-02T01:08:06;101173.28;;;12.62;79.90
53647;BME280;39550;52.230;5.194;2022-11-02T01:10:32;101178.44;;;12.62;80.39
53647;BME280;39550;52.230;5.194;2022-11-02T01:12:57;101174.97;;;12.59;80.11
53647;BME280;39550;52.230;5.194;2022-11-02T01:15:23;101167.22;;;12.61;79.77
53647;BME280;39550;52.230;5.194;2022-11-02T01:17:48;101143.09;;;12.57;79.67
53647;BME280;39550;52.230;5.194;2022-11-02T01:20:13;101150.84;;;12.57;79.40
53647;BME280;39550;52.230;5.194;2022-11-02T01:22:39;101163.78;;;12.59;79.71
53647;BME280;39550;52.230;5.194;2022-11-02T01:25:04;101158.63;;;12.59;80.30
53647;BME280;39550;52.230;5.194;2022-11-02T01:27:30;101174.97;;;12.59;79.78
53647;BME280;39550;52.230;5.194;2022-11-02T01:29:56;101178.41;;;12.58;79.95
53647;BME280;39550;52.230;5.194;2022-11-02T01:32:22;101174.97;;;12.56;79.87
53647;BME280;39550;52.230;5.194;2022-11-02T01:34:47;101175.81;;;12.55;79.29
53647;BME280;39550;52.230;5.194;2022-11-02T01:37:13;101178.41;;;12.55;79.61
53647;BME280;39550;52.230;5.194;2022-11-02T01:39:38;101173.25;;;12.55;80.17
53647;BME280;39550;52.230;5.194;2022-11-02T01:42:21;101164.63;;;12.50;79.60
53647;BME280;39550;52.230;5.194;2022-11-02T01:44:47;101165.47;;;12.52;79.65
53647;BME280;39550;52.230;5.194;2022-11-02T01:47:19;101159.44;;;12.50;79.65
53647;BME280;39550;52.230;5.194;2022-11-02T01:49:48;101164.63;;;12.50;79.87
53647;BME280;39550;52.230;5.194;2022-11-02T01:52:21;101174.91;;;12.47;79.48
53647;BME280;39550;52.230;5.194;2022-11-02T01:54:56;101162.88;;;12.49;79.49
53647;BME280;39550;52.230;5.194;2022-11-02T01:57:24;101172.31;;;12.44;79.30
53647;BME280;39550;52.230;5.194;2022-11-02T02:00:12;101165.41;;;12.44;79.22
53647;BME280;39550;52.230;5.194;2022-11-02T02:02:50;101166.31;;;12.48;79.64
53647;BME280;39550;52.230;5.194;2022-11-02T02:05:17;101163.72;;;12.43;79.21
53647;BME280;39550;52.230;5.194;2022-11-02T02:07:43;101163.72;;;12.47;79.75
53647;BME280;39550;52.230;5.194;2022-11-02T02:10:09;101161.13;;;12.43;79.58
53647;BME280;39550;52.230;5.194;2022-11-02T02:12:36;101168.00;;;12.43;79.10
53647;BME280;39550;52.230;5.194;2022-11-02T02:15:03;101171.47;;;12.42;79.42
53647;BME280;39550;52.230;5.194;2022-11-02T02:17:40;101178.34;;;12.43;79.56
53647;BME280;39550;52.230;5.194;2022-11-02T02:20:15;101159.41;;;12.42;79.41
53647;BME280;39550;52.230;5.194;2022-11-02T02:25:30;101168.00;;;12.40;79.66
53647;BME280;39550;52.230;5.194;2022-11-02T02:30:50;101180.06;;;12.38;78.86
53647;BME280;39550;52.230;5.194;2022-11-02T02:33:31;101190.41;;;12.38;79.43
53647;BME280;39550;52.230;5.194;2022-11-02T02:36:33;101188.66;;;12.37;79.42
53647;BME280;39550;52.230;5.194;2022-11-02T02:39:08;101181.75;;;12.39;78.61
53647;BME280;39550;52.230;5.194;2022-11-02T02:41:39;101176.59;;;12.36;78.87
53647;BME280;39550;52.230;5.194;2022-11-02T02:44:09;101186.06;;;12.37;79.32
53647;BME280;39550;52.230;5.194;2022-11-02T02:46:43;101172.25;;;12.36;79.56
53647;BME280;39550;52.230;5.194;2022-11-02T02:49:11;101163.66;;;12.36;79.41
53647;BME280;39550;52.230;5.194;2022-11-02T02:51:40;101167.09;;;12.35;79.15
53647;BME280;39550;52.230;5.194;2022-11-02T02:54:18;101167.97;;;12.34;79.05
53647;BME280;39550;52.230;5.194;2022-11-02T02:56:49;101166.22;;;12.33;78.98
53647;BME280;39550;52.230;5.194;2022-11-02T02:59:23;101167.94;;;12.32;78.87
53647;BME280;39550;52.230;5.194;2022-11-02T03:01:51;101166.22;;;12.33;78.80
53647;BME280;39550;52.230;5.194;2022-11-02T03:04:18;101167.97;;;12.34;78.71
53647;BME280;39550;52.230;5.194;2022-11-02T03:06:48;101161.06;;;12.30;79.15
53647;BME280;39550;52.230;5.194;2022-11-02T03:09:31;101168.81;;;12.31;79.41
53647;BME280;39550;52.230;5.194;2022-11-02T03:25:47;101176.50;;;12.26;78.93
53647;BME280;39550;52.230;5.194;2022-11-02T03:34:02;101179.09;;;12.26;78.86
53647;BME280;39550;52.230;5.194;2022-11-02T03:36:46;101179.09;;;12.26;79.50
53647;BME280;39550;52.230;5.194;2022-11-02T03:39:16;101179.97;;;12.25;78.71
53647;BME280;39550;52.230;5.194;2022-11-02T03:41:43;101174.78;;;12.22;78.87
53647;BME280;39550;52.230;5.194;2022-11-02T03:44:14;101168.75;;;12.20;79.09
53647;BME280;39550;52.230;5.194;2022-11-02T03:46:42;101173.91;;;12.23;78.74
53647;BME280;39550;52.230;5.194;2022-11-02T03:49:12;101175.66;;;12.21;78.99
53647;BME280;39550;52.230;5.194;2022-11-02T03:51:41;101179.94;;;12.22;79.00
53647;BME280;39550;52.230;5.194;2022-11-02T03:54:14;101190.28;;;12.22;79.57
53647;BME280;39550;52.230;5.194;2022-11-02T03:56:49;101178.22;;;12.21;79.13
53647;BME280;39550;52.230;5.194;2022-11-02T03:59:15;101194.59;;;12.23;79.03
53647;BME280;39550;52.230;5.194;2022-11-02T04:01:46;101201.50;;;12.23;78.92
53647;BME280;39550;52.230;5.194;2022-11-02T04:04:13;101205.78;;;12.22;79.33
53647;BME280;39550;52.230;5.194;2022-11-02T04:06:40;101200.59;;;12.21;78.53
53647;BME280;39550;52.230;5.194;2022-11-02T04:09:06;101216.97;;;12.20;78.78
53647;BME280;39550;52.230;5.194;2022-11-02T04:11:31;101223.00;;;12.20;78.62
53647;BME280;39550;52.230;5.194;2022-11-02T04:14:15;101227.31;;;12.20;79.20
53647;BME280;39550;52.230;5.194;2022-11-02T04:16:59;101226.44;;;12.19;78.79
53647;BME280;39550;52.230;5.194;2022-11-02T04:19:43;101246.25;;;12.19;79.38
53647;BME280;39550;52.230;5.194;2022-11-02T04:22:08;101233.22;;;12.06;78.75
53647;BME280;39550;52.230;5.194;2022-11-02T04:24:52;101255.69;;;12.18;79.38
53647;BME280;39550;52.230;5.194;2022-11-02T04:27:36;101256.50;;;12.13;79.58
53647;BME280;39550;52.230;5.194;2022-11-02T04:30:02;101272.91;;;12.16;79.58
53647;BME280;39550;52.230;5.194;2022-11-02T04:32:28;101297.00;;;12.15;79.56
53647;BME280;39550;52.230;5.194;2022-11-02T04:35:12;101283.25;;;12.16;79.00
53647;BME280;39550;52.230;5.194;2022-11-02T04:37:39;101285.00;;;12.17;78.89
53647;BME280;39550;52.230;5.194;2022-11-02T04:40:23;101276.34;;;12.15;79.20
53647;BME280;39550;52.230;5.194;2022-11-02T04:42:48;101274.59;;;12.14;79.31
53647;BME280;39550;52.230;5.194;2022-11-02T04:45:14;101284.94;;;12.14;79.13
53647;BME280;39550;52.230;5.194;2022-11-02T04:47:39;101289.25;;;12.12;79.16
53647;BME280;39550;52.230;5.194;2022-11-02T04:50:04;101309.06;;;12.13;79.78
53647;BME280;39550;52.230;5.194;2022-11-02T04:52:30;101313.34;;;12.11;79.74
53647;BME280;39550;52.230;5.194;2022-11-02T04:54:55;101317.66;;;12.12;79.16
53647;BME280;39550;52.230;5.194;2022-11-02T04:57:20;101317.66;;;12.12;79.95
53647;BME280;39550;52.230;5.194;2022-11-02T04:59:46;101325.41;;;12.12;79.37
53647;BME280;39550;52.230;5.194;2022-11-02T05:02:11;101321.97;;;12.12;79.51
53647;BME280;39550;52.230;5.194;2022-11-02T05:04:36;101326.22;;;12.08;79.73
53647;BME280;39550;52.230;5.194;2022-11-02T05:07:01;101335.72;;;12.07;79.41
53647;BME280;39550;52.230;5.194;2022-11-02T05:09:30;101346.91;;;12.08;80.01
53647;BME280;39550;52.230;5.194;2022-11-02T05:11:55;101350.31;;;12.07;79.31
53647;BME280;39550;52.230;5.194;2022-11-02T05:14:21;101352.06;;;12.06;79.69
53647;BME280;39550;52.230;5.194;2022-11-02T05:16:46;101352.06;;;12.06;79.75
53647;BME280;39550;52.230;5.194;2022-11-02T05:19:11;101356.38;;;12.06;79.38
53647;BME280;39550;52.230;5.194;2022-11-02T05:21:37;101363.25;;;12.07;79.82
53647;BME280;39550;52.230;5.194;2022-11-02T05:24:02;101348.56;;;12.03;79.75
53647;BME280;39550;52.230;5.194;2022-11-02T05:26:27;101362.38;;;12.05;80.08
53647;BME280;39550;52.230;5.194;2022-11-02T05:28:52;101369.28;;;12.06;79.59
53647;BME280;39550;52.230;5.194;2022-11-02T05:31:18;101372.72;;;12.05;79.39
53647;BME280;39550;52.230;5.194;2022-11-02T05:33:43;101367.53;;;12.05;79.73
53647;BME280;39550;52.230;5.194;2022-11-02T05:36:09;101379.63;;;12.06;79.69
53647;BME280;39550;52.230;5.194;2022-11-02T05:38:35;101380.47;;;12.05;79.83
53647;BME280;39550;52.230;5.194;2022-11-02T05:41:00;101385.63;;;12.05;79.82
53647;BME280;39550;52.230;5.194;2022-11-02T05:43:26;101383.03;;;12.05;79.88
53647;BME280;39550;52.230;5.194;2022-11-02T05:45:54;101395.94;;;12.03;79.75
53647;BME280;39550;52.230;5.194;2022-11-02T05:48:20;101402.81;;;12.04;79.68
53647;BME280;39550;52.230;5.194;2022-11-02T05:50:46;101410.56;;;12.04;79.87
53647;BME280;39550;52.230;5.194;2022-11-02T05:53:11;101413.13;;;12.03;79.46
53647;BME280;39550;52.230;5.194;2022-11-02T05:55:36;101424.38;;;12.05;80.04
53647;BME280;39550;52.230;5.194;2022-11-02T05:58:02;101422.63;;;12.02;79.64
53647;BME280;39550;52.230;5.194;2022-11-02T06:00:27;101420.88;;;12.01;79.78
53647;BME280;39550;52.230;5.194;2022-11-02T06:02:57;101431.22;;;12.03;79.61
53647;BME280;39550;52.230;5.194;2022-11-02T06:05:23;101443.25;;;12.01;80.02
53647;BME280;39550;52.230;5.194;2022-11-02T06:07:49;101442.38;;;11.99;80.38
53647;BME280;39550;52.230;5.194;2022-11-02T06:10:15;101452.72;;;12.00;79.68
53647;BME280;39550;52.230;5.194;2022-11-02T06:12:40;101457.03;;;12.00;80.21
53647;BME280;39550;52.230;5.194;2022-11-02T06:15:06;101456.16;;;11.99;79.79
53647;BME280;39550;52.230;5.194;2022-11-02T06:17:40;101462.16;;;11.97;80.19
53647;BME280;39550;52.230;5.194;2022-11-02T06:20:06;101470.78;;;11.99;79.98
53647;BME280;39550;52.230;5.194;2022-11-02T06:22:41;101474.25;;;11.98;80.32
53647;BME280;39550;52.230;5.194;2022-11-02T06:25:07;101482.81;;;11.97;79.88
53647;BME280;39550;52.230;5.194;2022-11-02T06:27:32;101486.25;;;11.96;80.09
53647;BME280;39550;52.230;5.194;2022-11-02T06:29:58;101482.81;;;11.97;80.12
53647;BME280;39550;52.230;5.194;2022-11-02T06:32:24;101495.72;;;11.95;80.20
53647;BME280;39550;52.230;5.194;2022-11-02T06:34:49;101493.09;;;11.93;80.21
53647;BME280;39550;52.230;5.194;2022-11-02T06:37:14;101502.59;;;11.95;80.37
53647;BME280;39550;52.230;5.194;2022-11-02T06:39:39;101509.47;;;11.94;80.14
53647;BME280;39550;52.230;5.194;2022-11-02T06:42:05;101519.81;;;11.94;79.70
53647;BME280;39550;52.230;5.194;2022-11-02T06:44:30;101511.88;;;11.83;79.50
53647;BME280;39550;52.230;5.194;2022-11-02T06:46:55;101532.66;;;11.92;80.08
53647;BME280;39550;52.230;5.194;2022-11-02T06:49:21;101538.69;;;11.93;79.67
53647;BME280;39550;52.230;5.194;2022-11-02T06:51:49;101544.75;;;11.93;79.76
53647;BME280;39550;52.230;5.194;2022-11-02T06:54:15;101555.91;;;11.92;79.87
53647;BME280;39550;52.230;5.194;2022-11-02T06:56:40;101555.97;;;11.94;79.28
53647;BME280;39550;52.230;5.194;2022-11-02T06:59:05;101562.00;;;11.95;79.52
53647;BME280;39550;52.230;5.194;2022-11-02T07:01:30;101568.00;;;11.93;79.67
53647;BME280;39550;52.230;5.194;2022-11-02T07:03:56;101586.06;;;11.93;79.49
53647;BME280;39550;52.230;5.194;2022-11-02T07:06:21;101587.81;;;11.95;79.88
53647;BME280;39550;52.230;5.194;2022-11-02T07:08:46;101589.16;;;11.71;76.79
53647;BME280;39550;52.230;5.194;2022-11-02T07:11:15;101606.16;;;11.56;77.69
53647;BME280;39550;52.230;5.194;2022-11-02T07:13:41;101606.22;;;11.59;77.63
53647;BME280;39550;52.230;5.194;2022-11-02T07:16:06;101613.19;;;11.65;77.38
53647;BME280;39550;52.230;5.194;2022-11-02T07:18:32;101617.53;;;11.69;77.46
53647;BME280;39550;52.230;5.194;2022-11-02T07:20:58;101620.16;;;11.72;77.21
53647;BME280;39550;52.230;5.194;2022-11-02T07:23:23;101628.84;;;11.76;77.88
53647;BME280;39550;52.230;5.194;2022-11-02T07:25:49;101639.19;;;11.78;77.82
53647;BME280;39550;52.230;5.194;2022-11-02T07:28:14;101634.88;;;11.76;78.13
53647;BME280;39550;52.230;5.194;2022-11-02T07:30:39;101646.13;;;11.80;77.92
53647;BME280;39550;52.230;5.194;2022-11-02T07:33:05;101651.28;;;11.80;77.68
53647;BME280;39550;52.230;5.194;2022-11-02T07:35:30;101654.72;;;11.79;77.88
53647;BME280;39550;52.230;5.194;2022-11-02T07:38:00;101660.81;;;11.83;78.35
53647;BME280;39550;52.230;5.194;2022-11-02T07:40:27;101661.66;;;11.83;78.18
53647;BME280;39550;52.230;5.194;2022-11-02T07:42:53;101664.22;;;11.82;77.91
53647;BME280;39550;52.230;5.194;2022-11-02T07:45:20;101672.81;;;11.82;77.62
53647;BME280;39550;52.230;5.194;2022-11-02T07:47:46;101668.56;;;11.84;78.26
53647;BME280;39550;52.230;5.194;2022-11-02T07:50:13;101669.41;;;11.83;77.56
53647;BME280;39550;52.230;5.194;2022-11-02T07:52:50;101673.72;;;11.84;77.92
53647;BME280;39550;52.230;5.194;2022-11-02T07:55:18;101676.31;;;11.84;77.55
53647;BME280;39550;52.230;5.194;2022-11-02T07:58:01;101680.56;;;11.82;78.17
53647;BME280;39550;52.230;5.194;2022-11-02T08:00:30;101685.75;;;11.82;77.53
53647;BME280;39550;52.230;5.194;2022-11-02T08:02:57;101684.06;;;11.84;77.33
53647;BME280;39550;52.230;5.194;2022-11-02T08:05:24;101687.53;;;11.86;77.47
53647;BME280;39550;52.230;5.194;2022-11-02T08:07:57;101688.41;;;11.87;77.67
53647;BME280;39550;52.230;5.194;2022-11-02T08:10:23;101694.44;;;11.87;77.58
53647;BME280;39550;52.230;5.194;2022-11-02T08:12:48;101689.28;;;11.87;77.53
53647;BME280;39550;52.230;5.194;2022-11-02T08:15:14;101694.44;;;11.87;77.27
53647;BME280;39550;52.230;5.194;2022-11-02T08:17:39;101708.25;;;11.89;77.15
53647;BME280;39550;52.230;5.194;2022-11-02T08:20:05;101705.59;;;11.86;77.83
53647;BME280;39550;52.230;5.194;2022-11-02T08:22:31;101719.38;;;11.85;77.74
53647;BME280;39550;52.230;5.194;2022-11-02T08:25:00;101712.50;;;11.87;77.73
53647;BME280;39550;52.230;5.194;2022-11-02T08:27:25;101723.69;;;11.88;77.51
53647;BME280;39550;52.230;5.194;2022-11-02T08:29:51;101713.44;;;11.89;77.41
53647;BME280;39550;52.230;5.194;2022-11-02T08:32:16;101722.00;;;11.88;77.79
53647;BME280;39550;52.230;5.194;2022-11-02T08:34:42;101722.00;;;11.88;76.86
53647;BME280;39550;52.230;5.194;2022-11-02T08:37:07;101715.09;;;11.87;77.42
53647;BME280;39550;52.230;5.194;2022-11-02T08:39:33;101728.91;;;11.89;77.33
53647;BME280;39550;52.230;5.194;2022-11-02T08:41:58;101725.47;;;11.90;77.75
53647;BME280;39550;52.230;5.194;2022-11-02T08:44:23;101725.47;;;11.90;77.41
53647;BME280;39550;52.230;5.194;2022-11-02T08:46:50;101727.22;;;11.91;77.74
53647;BME280;39550;52.230;5.194;2022-11-02T08:49:15;101732.38;;;11.91;77.67
53647;BME280;39550;52.230;5.194;2022-11-02T08:51:43;101740.13;;;11.91;77.70
53647;BME280;39550;52.230;5.194;2022-11-02T08:54:09;101726.38;;;11.91;77.11
53647;BME280;39550;52.230;5.194;2022-11-02T08:56:35;101738.41;;;11.92;77.67
53647;BME280;39550;52.230;5.194;2022-11-02T08:59:00;101743.56;;;11.92;77.67
53647;BME280;39550;52.230;5.194;2022-11-02T09:01:25;101755.72;;;11.95;77.66
53647;BME280;39550;52.230;5.194;2022-11-02T09:03:51;101742.72;;;11.91;77.59
53647;BME280;39550;52.230;5.194;2022-11-02T09:06:16;101756.53;;;11.93;77.32
53647;BME280;39550;52.230;5.194;2022-11-02T09:08:41;101759.19;;;11.95;77.95
53647;BME280;39550;52.230;5.194;2022-11-02T09:11:07;101756.63;;;11.97;77.26
53647;BME280;39550;52.230;5.194;2022-11-02T09:13:32;101744.34;;;11.86;77.34
53647;BME280;39550;52.230;5.194;2022-11-02T09:15:58;101766.13;;;11.98;77.39
53647;BME280;39550;52.230;5.194;2022-11-02T09:18:24;101764.38;;;11.98;77.01
53647;BME280;39550;52.230;5.194;2022-11-02T09:20:50;101762.66;;;11.97;77.54
53647;BME280;39550;52.230;5.194;2022-11-02T09:23:16;101773.91;;;12.01;77.32
53647;BME280;39550;52.230;5.194;2022-11-02T09:25:42;101779.91;;;12.00;77.88
53647;BME280;39550;52.230;5.194;2022-11-02T09:28:07;101780.81;;;12.02;77.43
53647;BME280;39550;52.230;5.194;2022-11-02T09:30:33;101788.59;;;12.03;77.47
53647;BME280;39550;52.230;5.194;2022-11-02T09:33:03;101784.28;;;12.04;76.70
53647;BME280;39550;52.230;5.194;2022-11-02T09:35:32;101786.84;;;12.02;77.14
53647;BME280;39550;52.230;5.194;2022-11-02T09:37:57;101808.47;;;12.07;76.84
53647;BME280;39550;52.230;5.194;2022-11-02T09:40:28;101809.25;;;12.03;76.37
53647;BME280;39550;52.230;5.194;2022-11-02T09:45:33;101814.41;;;12.02;75.39
53647;BME280;39550;52.230;5.194;2022-11-02T09:48:23;101818.66;;;12.00;74.99
53647;BME280;39550;52.230;5.194;2022-11-02T09:50:50;101808.44;;;12.06;74.95
53647;BME280;39550;52.230;5.194;2022-11-02T09:53:23;101810.97;;;12.04;75.03
53647;BME280;39550;52.230;5.194;2022-11-02T09:55:55;101815.28;;;12.04;74.75
53647;BME280;39550;52.230;5.194;2022-11-02T09:58:29;101818.72;;;12.03;74.20
53647;BME280;39550;52.230;5.194;2022-11-02T10:01:03;101820.41;;;12.01;74.36
53647;BME280;39550;52.230;5.194;2022-11-02T10:04:03;101827.38;;;12.05;74.29
53647;BME280;39550;52.230;5.194;2022-11-02T10:06:34;101823.03;;;12.04;74.16
53647;BME280;39550;52.230;5.194;2022-11-02T10:09:24;101821.28;;;12.03;73.82
53647;BME280;39550;52.230;5.194;2022-11-02T10:12:07;101827.41;;;12.08;74.08
53647;BME280;39550;52.230;5.194;2022-11-02T10:14:39;101827.38;;;12.05;73.54
53647;BME280;39550;52.230;5.194;2022-11-02T10:17:16;101834.28;;;12.06;73.00
53647;BME280;39550;52.230;5.194;2022-11-02T10:19:48;101836.06;;;12.10;72.77
53647;BME280;39550;52.230;5.194;2022-11-02T10:22:15;101830.84;;;12.07;72.68
53647;BME280;39550;52.230;5.194;2022-11-02T10:24:45;101836.06;;;12.10;72.23
53647;BME280;39550;52.230;5.194;2022-11-02T10:27:19;101835.19;;;12.09;72.31
53647;BME280;39550;52.230;5.194;2022-11-02T10:29:58;101832.69;;;12.14;72.26
53647;BME280;39550;52.230;5.194;2022-11-02T10:32:26;101832.69;;;12.14;72.56
53647;BME280;39550;52.230;5.194;2022-11-02T10:34:51;101840.44;;;12.14;72.85
53647;BME280;39550;52.230;5.194;2022-11-02T10:37:23;101840.50;;;12.17;73.36
53647;BME280;39550;52.230;5.194;2022-11-02T10:46:43;101855.22;;;12.21;74.14
53647;BME280;39550;52.230;5.194;2022-11-02T10:48:53;101850.09;;;12.24;74.64
53647;BME280;39550;52.230;5.194;2022-11-02T10:51:22;101850.94;;;12.23;74.39
53647;BME280;39550;52.230;5.194;2022-11-02T10:53:50;101853.63;;;12.28;74.25
53647;BME280;39550;52.230;5.194;2022-11-02T10:56:21;101852.72;;;12.27;74.76
53647;BME280;39550;52.230;5.194;2022-11-02T11:01:26;101846.50;;;12.16;74.86
53647;BME280;39550;52.230;5.194;2022-11-02T11:03:54;101862.09;;;12.21;75.08
53647;BME280;39550;52.230;5.194;2022-11-02T11:06:21;101862.03;;;12.18;74.88
53647;BME280;39550;52.230;5.194;2022-11-02T11:08:48;101860.31;;;12.18;75.31
53647;BME280;39550;52.230;5.194;2022-11-02T11:11:26;101867.22;;;12.19;75.22
53647;BME280;39550;52.230;5.194;2022-11-02T11:16:35;101862.09;;;12.22;75.47
53647;BME280;39550;52.230;5.194;2022-11-02T11:19:01;101863.84;;;12.22;75.56
53647;BME280;39550;52.230;5.194;2022-11-02T11:21:35;101856.09;;;12.23;75.60
53647;BME280;39550;52.230;5.194;2022-11-02T11:24:31;101875.25;;;12.35;74.72
53647;BME280;39550;52.230;5.194;2022-11-02T11:29:34;101868.63;;;12.51;74.28
53647;BME280;39550;52.230;5.194;2022-11-02T11:32:02;101859.16;;;12.51;74.19
53647;BME280;39550;52.230;5.194;2022-11-02T11:34:30;101872.03;;;12.48;74.64
53647;BME280;39550;52.230;5.194;2022-11-02T11:37:08;101855.59;;;12.44;74.83
53647;BME280;39550;52.230;5.194;2022-11-02T11:39:35;101869.38;;;12.43;75.38
53647;BME280;39550;52.230;5.194;2022-11-02T11:42:03;101861.63;;;12.43;75.31
53647;BME280;39550;52.230;5.194;2022-11-02T11:44:30;101867.69;;;12.47;74.90
53647;BME280;39550;52.230;5.194;2022-11-02T11:46:57;101859.97;;;12.49;75.12
53647;BME280;39550;52.230;5.194;2022-11-02T11:49:25;101853.97;;;12.51;75.17
53647;BME280;39550;52.230;5.194;2022-11-02T11:51:53;101853.97;;;12.51;75.26
53647;BME280;39550;52.230;5.194;2022-11-02T11:54:53;101859.16;;;12.51;75.47
53647;BME280;39550;52.230;5.194;2022-11-02T11:57:27;101871.28;;;12.55;74.86
53647;BME280;39550;52.230;5.194;2022-11-02T11:59:55;101866.16;;;12.58;75.37
53647;BME280;39550;52.230;5.194;2022-11-02T12:02:33;101870.50;;;12.61;74.59
53647;BME280;39550;52.230;5.194;2022-11-02T12:05:14;101863.66;;;12.63;74.64
53647;BME280;39550;52.230;5.194;2022-11-02T12:10:52;101858.38;;;12.57;75.54
53647;BME280;39550;52.230;5.194;2022-11-02T12:13:45;101867.09;;;12.62;75.47
53647;BME280;39550;52.230;5.194;2022-11-02T12:30:03;101850.91;;;12.74;75.42
53647;BME280;39550;52.230;5.194;2022-11-02T12:32:47;101847.41;;;12.72;74.86
53647;BME280;39550;52.230;5.194;2022-11-02T12:38:11;101846.56;;;12.73;75.08
53647;BME280;39550;52.230;5.194;2022-11-02T12:40:52;101831.94;;;12.75;74.66
53647;BME280;39550;52.230;5.194;2022-11-02T12:46:27;101839.03;;;12.88;74.86
53647;BME280;39550;52.230;5.194;2022-11-02T12:51:33;101833.78;;;12.82;74.36
53647;BME280;39550;52.230;5.194;2022-11-02T12:54:10;101841.50;;;12.81;74.17
53647;BME280;39550;52.230;5.194;2022-11-02T12:56:44;101842.41;;;12.84;74.14
53647;BME280;39550;52.230;5.194;2022-11-02T12:59:20;101842.41;;;12.84;74.29
53647;BME280;39550;52.230;5.194;2022-11-02T13:01:48;101833.78;;;12.82;74.09
53647;BME280;39550;52.230;5.194;2022-11-02T13:04:21;101840.66;;;12.83;74.55
53647;BME280;39550;52.230;5.194;2022-11-02T13:06:51;101836.47;;;12.90;74.58
53647;BME280;39550;52.230;5.194;2022-11-02T13:09:35;101832.94;;;12.85;74.38
53647;BME280;39550;52.230;5.194;2022-11-02T13:12:06;101820.78;;;12.79;74.23
53647;BME280;39550;52.230;5.194;2022-11-02T13:14:43;101825.91;;;12.76;75.22
53647;BME280;39550;52.230;5.194;2022-11-02T13:17:37;101820.69;;;12.73;75.12
53647;BME280;39550;52.230;5.194;2022-11-02T13:22:39;101809.75;;;12.92;74.00
53647;BME280;39550;52.230;5.194;2022-11-02T13:25:22;101796.00;;;12.93;73.76
53647;BME280;39550;52.230;5.194;2022-11-02T13:27:56;101803.84;;;13.01;73.42
53647;BME280;39550;52.230;5.194;2022-11-02T13:30:22;101787.47;;;13.01;73.21
53647;BME280;39550;52.230;5.194;2022-11-02T13:32:53;101783.13;;;13.01;74.03
53647;BME280;39550;52.230;5.194;2022-11-02T13:35:26;101783.59;;;13.37;72.29
53647;BME280;39550;52.230;5.194;2022-11-02T13:38:20;101790.63;;;13.47;71.97
53647;BME280;39550;52.230;5.194;2022-11-02T13:41:17;101782.34;;;13.07;73.25
53647;BME280;39550;52.230;5.194;2022-11-02T13:44:03;101789.19;;;13.00;73.92
53647;BME280;39550;52.230;5.194;2022-11-02T13:49:13;101786.78;;;13.14;73.95
53647;BME280;39550;52.230;5.194;2022-11-02T13:51:43;101783.38;;;13.20;73.42
53647;BME280;39550;52.230;5.194;2022-11-02T13:56:38;101795.19;;;12.99;74.11
53647;BME280;39550;52.230;5.194;2022-11-02T13:59:14;101787.41;;;12.98;73.90
53647;BME280;39550;52.230;5.194;2022-11-02T14:01:43;101790.69;;;12.84;74.59
53647;BME280;39550;52.230;5.194;2022-11-02T14:04:11;101781.06;;;12.72;74.92
53647;BME280;39550;52.230;5.194;2022-11-02T14:06:50;101783.59;;;12.71;75.11
53647;BME280;39550;52.230;5.194;2022-11-02T14:12:23;101777.63;;;12.75;75.26
53647;BME280;39550;52.230;5.194;2022-11-02T14:20:43;101778.41;;;12.71;74.60
53647;BME280;39550;52.230;5.194;2022-11-02T14:36:56;101753.44;;;12.70;75.12
53647;BME280;39550;52.230;5.194;2022-11-02T14:39:52;101762.03;;;12.69;75.45